sensor_id;sensor_type;location;lat;lon;timestamp;P1;durP1;ratioP1;P2;durP2;ratioP2
1276;SDS011;631;51.024;13.826;2024-01-16T00:01:09;17.65;;;16.60;;
1276;SDS011;631;51.024;13.826;2024-01-16T00:03:35;17.10;;;16.10;;
1276;SDS011;631;51.024;13.826;2024-01-16T00:06:02;17.15;;;16.25;;
1276;SDS011;631;51.024;13.826;2024-01-16T00:08:29;17.42;;;16.50;;
1276;SDS011;631;51.024;13.826;2024-01-16T00:10:54;17.73;;;16.73;;
1276;SDS011;631;51.024;13.826;2024-01-16T00:13:20;17.67;;;16.47;;
1276;SDS011;631;51.024;13.826;2024-01-16T00:15:46;17.27;;;16.27;;
1276;SDS011;631;51.024;13.826;2024-01-16T00:18:11;17.10;;;16.13;;
1276;SDS011;631;51.024;13.826;2024-01-16T00:20:37;17.47;;;16.37;;
1276;SDS011;631;51.024;13.826;2024-01-16T00:23:02;17.20;;;16.20;;
1276;SDS011;631;51.024;13.826;2024-01-16T00:25:28;17.37;;;15.73;;
1276;SDS011;631;51.024;13.826;2024-01-16T00:27:54;16.40;;;15.60;;
1276;SDS011;631;51.024;13.826;2024-01-16T00:30:20;17.02;;;16.13;;
1276;SDS011;631;51.024;13.826;2024-01-16T00:32:46;16.47;;;15.53;;
1276;SDS011;631;51.024;13.826;2024-01-16T00:35:11;15.90;;;15.10;;
1276;SDS011;631;51.024;13.826;2024-01-16T00:37:37;17.87;;;16.73;;
1276;SDS011;631;51.024;13.826;2024-01-16T00:40:03;16.60;;;15.70;;
1276;SDS011;631;51.024;13.826;2024-01-16T00:42:30;16.08;;;15.27;;
1276;SDS011;631;51.024;13.826;2024-01-16T00:44:56;16.25;;;15.45;;
1276;SDS011;631;51.024;13.826;2024-01-16T00:47:22;15.80;;;15.10;;
1276;SDS011;631;51.024;13.826;2024-01-16T00:49:48;16.33;;;15.53;;
1276;SDS011;631;51.024;13.826;2024-01-16T00:52:14;15.87;;;15.00;;
1276;SDS011;631;51.024;13.826;2024-01-16T00:54:40;16.30;;;15.40;;
1276;SDS011;631;51.024;13.826;2024-01-16T00:57:06;16.42;;;15.38;;
1276;SDS011;631;51.024;13.826;2024-01-16T00:59:32;15.80;;;15.00;;
1276;SDS011;631;51.024;13.826;2024-01-16T01:01:58;15.97;;;15.07;;
1276;SDS011;631;51.024;13.826;2024-01-16T01:04:23;16.23;;;15.33;;
1276;SDS011;631;51.024;13.826;2024-01-16T01:06:49;16.50;;;15.50;;
1276;SDS011;631;51.024;13.826;2024-01-16T01:09:15;15.57;;;14.77;;
1276;SDS011;631;51.024;13.826;2024-01-16T01:11:41;16.70;;;15.65;;
1276;SDS011;631;51.024;13.826;2024-01-16T01:14:07;16.23;;;15.07;;
1276;SDS011;631;51.024;13.826;2024-01-16T01:16:33;15.97;;;15.07;;
1276;SDS011;631;51.024;13.826;2024-01-16T01:18:58;15.90;;;15.00;;
1276;SDS011;631;51.024;13.826;2024-01-16T01:21:24;17.13;;;15.50;;
1276;SDS011;631;51.024;13.826;2024-01-16T01:23:49;15.57;;;14.70;;
1276;SDS011;631;51.024;13.826;2024-01-16T01:26:15;15.70;;;14.90;;
1276;SDS011;631;51.024;13.826;2024-01-16T01:28:43;16.27;;;15.07;;
1276;SDS011;631;51.024;13.826;2024-01-16T01:31:09;16.07;;;14.97;;
1276;SDS011;631;51.024;13.826;2024-01-16T01:33:38;15.98;;;14.98;;
1276;SDS011;631;51.024;13.826;2024-01-16T01:36:04;15.30;;;14.50;;
1276;SDS011;631;51.024;13.826;2024-01-16T01:38:30;15.37;;;14.57;;
1276;SDS011;631;51.024;13.826;2024-01-16T01:40:56;15.00;;;14.20;;
1276;SDS011;631;51.024;13.826;2024-01-16T01:43:23;14.80;;;13.90;;
1276;SDS011;631;51.024;13.826;2024-01-16T01:48:34;15.77;;;14.77;;
1276;SDS011;631;51.024;13.826;2024-01-16T01:51:01;15.82;;;14.70;;
1276;SDS011;631;51.024;13.826;2024-01-16T01:53:28;15.52;;;14.30;;
1276;SDS011;631;51.024;13.826;2024-01-16T01:55:56;15.73;;;14.85;;
1276;SDS011;631;51.024;13.826;2024-01-16T01:58:22;15.50;;;14.50;;
1276;SDS011;631;51.024;13.826;2024-01-16T02:00:48;15.00;;;14.07;;
1276;SDS011;631;51.024;13.826;2024-01-16T02:03:14;14.43;;;13.73;;
1276;SDS011;631;51.024;13.826;2024-01-16T02:05:40;14.82;;;13.93;;
1276;SDS011;631;51.024;13.826;2024-01-16T02:08:07;14.50;;;13.80;;
1276;SDS011;631;51.024;13.826;2024-01-16T02:10:33;14.70;;;13.90;;
1276;SDS011;631;51.024;13.826;2024-01-16T02:13:02;16.40;;;15.35;;
1276;SDS011;631;51.024;13.826;2024-01-16T02:15:28;15.27;;;14.38;;
1276;SDS011;631;51.024;13.826;2024-01-16T02:17:54;15.90;;;14.90;;
1276;SDS011;631;51.024;13.826;2024-01-16T02:20:20;15.43;;;14.23;;
1276;SDS011;631;51.024;13.826;2024-01-16T02:22:46;15.97;;;14.80;;
1276;SDS011;631;51.024;13.826;2024-01-16T02:25:15;15.43;;;14.48;;
1276;SDS011;631;51.024;13.826;2024-01-16T02:27:42;14.73;;;13.93;;
1276;SDS011;631;51.024;13.826;2024-01-16T02:30:07;16.00;;;15.03;;
1276;SDS011;631;51.024;13.826;2024-01-16T02:32:33;15.17;;;14.27;;
1276;SDS011;631;51.024;13.826;2024-01-16T02:34:58;15.03;;;14.13;;
1276;SDS011;631;51.024;13.826;2024-01-16T02:37:24;15.27;;;14.43;;
1276;SDS011;631;51.024;13.826;2024-01-16T02:39:50;14.30;;;13.60;;
1276;SDS011;631;51.024;13.826;2024-01-16T02:42:16;14.87;;;14.10;;
1276;SDS011;631;51.024;13.826;2024-01-16T02:44:41;16.00;;;14.90;;
1276;SDS011;631;51.024;13.826;2024-01-16T02:47:07;16.03;;;14.57;;
1276;SDS011;631;51.024;13.826;2024-01-16T02:49:33;15.13;;;14.23;;
1276;SDS011;631;51.024;13.826;2024-01-16T02:51:58;14.43;;;13.70;;
1276;SDS011;631;51.024;13.826;2024-01-16T02:54:24;14.43;;;13.63;;
1276;SDS011;631;51.024;13.826;2024-01-16T02:56:50;14.43;;;13.57;;
1276;SDS011;631;51.024;13.826;2024-01-16T02:59:15;14.93;;;13.93;;
1276;SDS011;631;51.024;13.826;2024-01-16T03:01:41;14.68;;;13.85;;
1276;SDS011;631;51.024;13.826;2024-01-16T03:04:07;14.20;;;13.50;;
1276;SDS011;631;51.024;13.826;2024-01-16T03:06:34;14.35;;;13.50;;
1276;SDS011;631;51.024;13.826;2024-01-16T03:08:59;14.87;;;13.70;;
1276;SDS011;631;51.024;13.826;2024-01-16T03:11:25;15.10;;;14.20;;
1276;SDS011;631;51.024;13.826;2024-01-16T03:13:51;14.97;;;13.97;;
1276;SDS011;631;51.024;13.826;2024-01-16T03:16:18;14.50;;;13.70;;
1276;SDS011;631;51.024;13.826;2024-01-16T03:18:43;14.63;;;13.70;;
1276;SDS011;631;51.024;13.826;2024-01-16T03:21:10;15.00;;;14.30;;
1276;SDS011;631;51.024;13.826;2024-01-16T03:23:37;14.70;;;13.90;;
1276;SDS011;631;51.024;13.826;2024-01-16T03:26:03;14.63;;;13.73;;
1276;SDS011;631;51.024;13.826;2024-01-16T03:28:28;14.83;;;14.03;;
1276;SDS011;631;51.024;13.826;2024-01-16T03:30:54;15.00;;;14.20;;
1276;SDS011;631;51.024;13.826;2024-01-16T03:33:20;14.03;;;13.43;;
1276;SDS011;631;51.024;13.826;2024-01-16T03:35:45;14.90;;;14.00;;
1276;SDS011;631;51.024;13.826;2024-01-16T03:38:12;15.10;;;14.05;;
1276;SDS011;631;51.024;13.826;2024-01-16T03:40:38;15.07;;;14.17;;
1276;SDS011;631;51.024;13.826;2024-01-16T03:43:04;14.60;;;13.80;;
1276;SDS011;631;51.024;13.826;2024-01-16T03:45:32;14.35;;;13.65;;
1276;SDS011;631;51.024;13.826;2024-01-16T03:47:58;14.47;;;13.77;;
1276;SDS011;631;51.024;13.826;2024-01-16T03:50:24;14.60;;;13.90;;
1276;SDS011;631;51.024;13.826;2024-01-16T03:52:49;15.13;;;14.23;;
1276;SDS011;631;51.024;13.826;2024-01-16T03:55:15;14.57;;;13.77;;
1276;SDS011;631;51.024;13.826;2024-01-16T03:57:40;14.73;;;13.93;;
1276;SDS011;631;51.024;13.826;2024-01-16T04:00:07;14.80;;;13.90;;
1276;SDS011;631;51.024;13.826;2024-01-16T04:02:37;13.88;;;13.10;;
1276;SDS011;631;51.024;13.826;2024-01-16T04:05:04;15.00;;;13.90;;
1276;SDS011;631;51.024;13.826;2024-01-16T04:07:30;14.32;;;13.57;;
1276;SDS011;631;51.024;13.826;2024-01-16T04:09:56;14.23;;;13.40;;
1276;SDS011;631;51.024;13.826;2024-01-16T04:12:21;14.10;;;13.40;;
1276;SDS011;631;51.024;13.826;2024-01-16T04:14:47;14.47;;;13.77;;
1276;SDS011;631;51.024;13.826;2024-01-16T04:17:12;14.30;;;13.50;;
1276;SDS011;631;51.024;13.826;2024-01-16T04:19:38;14.00;;;13.30;;
1276;SDS011;631;51.024;13.826;2024-01-16T04:22:04;14.17;;;13.47;;
1276;SDS011;631;51.024;13.826;2024-01-16T04:24:30;14.63;;;13.57;;
1276;SDS011;631;51.024;13.826;2024-01-16T04:26:56;14.20;;;13.50;;
1276;SDS011;631;51.024;13.826;2024-01-16T04:29:21;13.77;;;12.97;;
1276;SDS011;631;51.024;13.826;2024-01-16T04:31:47;13.75;;;12.90;;
1276;SDS011;631;51.024;13.826;2024-01-16T04:34:13;13.90;;;13.20;;
1276;SDS011;631;51.024;13.826;2024-01-16T04:36:39;13.80;;;13.10;;
1276;SDS011;631;51.024;13.826;2024-01-16T04:39:04;13.83;;;13.03;;
1276;SDS011;631;51.024;13.826;2024-01-16T04:41:30;13.73;;;12.87;;
1276;SDS011;631;51.024;13.826;2024-01-16T04:43:56;13.40;;;12.70;;
1276;SDS011;631;51.024;13.826;2024-01-16T04:46:21;14.70;;;13.63;;
1276;SDS011;631;51.024;13.826;2024-01-16T04:48:47;14.70;;;13.80;;
1276;SDS011;631;51.024;13.826;2024-01-16T04:51:12;14.43;;;13.63;;
1276;SDS011;631;51.024;13.826;2024-01-16T04:53:38;14.80;;;13.80;;
1276;SDS011;631;51.024;13.826;2024-01-16T04:56:05;13.95;;;13.15;;
1276;SDS011;631;51.024;13.826;2024-01-16T04:58:31;13.90;;;13.20;;
1276;SDS011;631;51.024;13.826;2024-01-16T05:00:56;14.73;;;13.80;;
1276;SDS011;631;51.024;13.826;2024-01-16T05:03:22;14.57;;;13.77;;
1276;SDS011;631;51.024;13.826;2024-01-16T05:05:48;14.57;;;13.73;;
1276;SDS011;631;51.024;13.826;2024-01-16T05:08:13;14.37;;;13.37;;
1276;SDS011;631;51.024;13.826;2024-01-16T05:10:39;15.60;;;14.80;;
1276;SDS011;631;51.024;13.826;2024-01-16T05:13:04;14.57;;;13.63;;
1276;SDS011;631;51.024;13.826;2024-01-16T05:15:30;13.60;;;12.90;;
1276;SDS011;631;51.024;13.826;2024-01-16T05:17:55;14.90;;;14.00;;
1276;SDS011;631;51.024;13.826;2024-01-16T05:20:21;13.60;;;12.90;;
1276;SDS011;631;51.024;13.826;2024-01-16T05:22:47;15.23;;;14.33;;
1276;SDS011;631;51.024;13.826;2024-01-16T05:25:12;14.10;;;13.30;;
1276;SDS011;631;51.024;13.826;2024-01-16T05:27:38;14.30;;;13.40;;
1276;SDS011;631;51.024;13.826;2024-01-16T05:30:04;13.93;;;13.13;;
1276;SDS011;631;51.024;13.826;2024-01-16T05:32:29;13.77;;;13.07;;
1276;SDS011;631;51.024;13.826;2024-01-16T05:34:55;14.60;;;13.90;;
1276;SDS011;631;51.024;13.826;2024-01-16T05:37:21;14.47;;;13.67;;
1276;SDS011;631;51.024;13.826;2024-01-16T05:39:46;14.67;;;13.70;;
1276;SDS011;631;51.024;13.826;2024-01-16T05:42:12;14.17;;;13.37;;
1276;SDS011;631;51.024;13.826;2024-01-16T05:44:37;14.03;;;13.33;;
1276;SDS011;631;51.024;13.826;2024-01-16T05:47:03;13.90;;;13.10;;
1276;SDS011;631;51.024;13.826;2024-01-16T05:49:30;15.02;;;14.13;;
1276;SDS011;631;51.024;13.826;2024-01-16T05:51:56;14.40;;;13.60;;
1276;SDS011;631;51.024;13.826;2024-01-16T05:54:22;13.97;;;13.37;;
1276;SDS011;631;51.024;13.826;2024-01-16T05:56:47;13.43;;;12.73;;
1276;SDS011;631;51.024;13.826;2024-01-16T05:59:14;14.75;;;14.05;;
1276;SDS011;631;51.024;13.826;2024-01-16T06:01:40;14.17;;;13.37;;
1276;SDS011;631;51.024;13.826;2024-01-16T06:04:06;14.07;;;13.27;;
1276;SDS011;631;51.024;13.826;2024-01-16T06:06:32;13.90;;;13.10;;
1276;SDS011;631;51.024;13.826;2024-01-16T06:08:58;14.40;;;13.70;;
1276;SDS011;631;51.024;13.826;2024-01-16T06:11:34;14.38;;;13.45;;
1276;SDS011;631;51.024;13.826;2024-01-16T06:13:59;14.80;;;14.10;;
1276;SDS011;631;51.024;13.826;2024-01-16T06:16:25;15.30;;;14.50;;
1276;SDS011;631;51.024;13.826;2024-01-16T06:18:51;14.30;;;13.40;;
1276;SDS011;631;51.024;13.826;2024-01-16T06:21:17;14.17;;;13.43;;
1276;SDS011;631;51.024;13.826;2024-01-16T06:23:43;14.23;;;13.43;;
1276;SDS011;631;51.024;13.826;2024-01-16T06:26:09;14.40;;;13.60;;
1276;SDS011;631;51.024;13.826;2024-01-16T06:28:34;14.57;;;13.87;;
1276;SDS011;631;51.024;13.826;2024-01-16T06:31:00;14.57;;;13.77;;
1276;SDS011;631;51.024;13.826;2024-01-16T06:33:26;14.70;;;13.53;;
1276;SDS011;631;51.024;13.826;2024-01-16T06:35:52;14.00;;;13.30;;
1276;SDS011;631;51.024;13.826;2024-01-16T06:38:20;14.93;;;13.93;;
1276;SDS011;631;51.024;13.826;2024-01-16T06:40:45;14.50;;;13.70;;
1276;SDS011;631;51.024;13.826;2024-01-16T06:43:11;14.57;;;13.77;;
1276;SDS011;631;51.024;13.826;2024-01-16T06:45:39;14.45;;;13.40;;
1276;SDS011;631;51.024;13.826;2024-01-16T06:48:05;15.33;;;14.47;;
1276;SDS011;631;51.024;13.826;2024-01-16T06:50:31;15.20;;;14.20;;
1276;SDS011;631;51.024;13.826;2024-01-16T06:52:56;16.23;;;15.23;;
1276;SDS011;631;51.024;13.826;2024-01-16T06:55:22;15.10;;;14.13;;
1276;SDS011;631;51.024;13.826;2024-01-16T06:57:48;14.00;;;13.20;;
1276;SDS011;631;51.024;13.826;2024-01-16T07:00:14;14.20;;;13.40;;
1276;SDS011;631;51.024;13.826;2024-01-16T07:02:40;15.43;;;14.32;;
1276;SDS011;631;51.024;13.826;2024-01-16T07:05:08;15.68;;;14.77;;
1276;SDS011;631;51.024;13.826;2024-01-16T07:07:34;15.90;;;14.90;;
1276;SDS011;631;51.024;13.826;2024-01-16T07:10:00;15.23;;;14.43;;
1276;SDS011;631;51.024;13.826;2024-01-16T07:12:25;15.40;;;14.50;;
1276;SDS011;631;51.024;13.826;2024-01-16T07:14:51;14.90;;;14.00;;
1276;SDS011;631;51.024;13.826;2024-01-16T07:17:17;14.90;;;14.10;;
1276;SDS011;631;51.024;13.826;2024-01-16T07:19:42;15.43;;;14.53;;
1276;SDS011;631;51.024;13.826;2024-01-16T07:22:08;14.17;;;13.37;;
1276;SDS011;631;51.024;13.826;2024-01-16T07:24:34;14.95;;;13.95;;
1276;SDS011;631;51.024;13.826;2024-01-16T07:27:00;14.73;;;13.83;;
1276;SDS011;631;51.024;13.826;2024-01-16T07:29:25;14.83;;;13.90;;
1276;SDS011;631;51.024;13.826;2024-01-16T07:31:51;14.67;;;13.73;;
1276;SDS011;631;51.024;13.826;2024-01-16T07:34:17;14.05;;;13.32;;
1276;SDS011;631;51.024;13.826;2024-01-16T07:36:47;14.70;;;13.70;;
1276;SDS011;631;51.024;13.826;2024-01-16T07:39:13;15.30;;;14.20;;
1276;SDS011;631;51.024;13.826;2024-01-16T07:41:39;14.55;;;13.75;;
1276;SDS011;631;51.024;13.826;2024-01-16T07:44:05;14.87;;;13.80;;
1276;SDS011;631;51.024;13.826;2024-01-16T07:46:30;13.67;;;12.97;;
1276;SDS011;631;51.024;13.826;2024-01-16T07:48:56;14.33;;;13.53;;
1276;SDS011;631;51.024;13.826;2024-01-16T07:51:22;14.53;;;13.40;;
1276;SDS011;631;51.024;13.826;2024-01-16T07:53:47;14.73;;;14.03;;
1276;SDS011;631;51.024;13.826;2024-01-16T07:56:15;14.15;;;13.25;;
1276;SDS011;631;51.024;13.826;2024-01-16T07:58:41;13.30;;;12.60;;
1276;SDS011;631;51.024;13.826;2024-01-16T08:01:06;14.40;;;13.57;;
1276;SDS011;631;51.024;13.826;2024-01-16T08:03:32;13.60;;;12.80;;
1276;SDS011;631;51.024;13.826;2024-01-16T08:05:57;13.30;;;12.30;;
1276;SDS011;631;51.024;13.826;2024-01-16T08:08:24;13.02;;;12.43;;
1276;SDS011;631;51.024;13.826;2024-01-16T08:10:49;13.60;;;12.80;;
1276;SDS011;631;51.024;13.826;2024-01-16T08:13:15;14.10;;;13.40;;
1276;SDS011;631;51.024;13.826;2024-01-16T08:15:40;13.43;;;12.67;;
1276;SDS011;631;51.024;13.826;2024-01-16T08:18:06;13.90;;;13.10;;
1276;SDS011;631;51.024;13.826;2024-01-16T08:20:32;14.13;;;12.90;;
1276;SDS011;631;51.024;13.826;2024-01-16T08:22:57;13.40;;;12.80;;
1276;SDS011;631;51.024;13.826;2024-01-16T08:25:23;13.63;;;12.43;;
1276;SDS011;631;51.024;13.826;2024-01-16T08:27:48;14.83;;;13.83;;
1276;SDS011;631;51.024;13.826;2024-01-16T08:30:14;14.70;;;13.67;;
1276;SDS011;631;51.024;13.826;2024-01-16T08:32:40;13.40;;;12.77;;
1276;SDS011;631;51.024;13.826;2024-01-16T08:35:06;14.37;;;13.53;;
1276;SDS011;631;51.024;13.826;2024-01-16T08:37:32;14.35;;;13.50;;
1276;SDS011;631;51.024;13.826;2024-01-16T08:39:59;14.90;;;13.90;;
1276;SDS011;631;51.024;13.826;2024-01-16T08:42:24;14.93;;;14.00;;
1276;SDS011;631;51.024;13.826;2024-01-16T08:44:50;14.87;;;14.07;;
1276;SDS011;631;51.024;13.826;2024-01-16T08:47:15;14.07;;;13.17;;
1276;SDS011;631;51.024;13.826;2024-01-16T08:49:41;14.50;;;13.13;;
1276;SDS011;631;51.024;13.826;2024-01-16T08:52:07;14.43;;;13.63;;
1276;SDS011;631;51.024;13.826;2024-01-16T08:54:32;13.93;;;13.23;;
1276;SDS011;631;51.024;13.826;2024-01-16T08:56:58;14.27;;;13.23;;
1276;SDS011;631;51.024;13.826;2024-01-16T08:59:23;14.77;;;13.90;;
1276;SDS011;631;51.024;13.826;2024-01-16T09:01:49;13.37;;;12.57;;
1276;SDS011;631;51.024;13.826;2024-01-16T09:04:15;14.30;;;13.40;;
1276;SDS011;631;51.024;13.826;2024-01-16T09:06:40;13.57;;;12.87;;
1276;SDS011;631;51.024;13.826;2024-01-16T09:09:06;14.55;;;13.63;;
1276;SDS011;631;51.024;13.826;2024-01-16T09:11:34;13.60;;;12.88;;
1276;SDS011;631;51.024;13.826;2024-01-16T09:13:59;14.23;;;13.23;;
1276;SDS011;631;51.024;13.826;2024-01-16T09:16:25;14.00;;;13.00;;
1276;SDS011;631;51.024;13.826;2024-01-16T09:18:51;14.50;;;13.47;;
1276;SDS011;631;51.024;13.826;2024-01-16T09:21:16;14.80;;;14.10;;
1276;SDS011;631;51.024;13.826;2024-01-16T09:23:42;15.30;;;14.50;;
1276;SDS011;631;51.024;13.826;2024-01-16T09:26:09;14.43;;;13.60;;
1276;SDS011;631;51.024;13.826;2024-01-16T09:28:35;14.50;;;13.70;;
1276;SDS011;631;51.024;13.826;2024-01-16T09:31:01;17.00;;;16.00;;
1276;SDS011;631;51.024;13.826;2024-01-16T09:33:27;16.00;;;15.20;;
1276;SDS011;631;51.024;13.826;2024-01-16T09:35:53;16.42;;;15.30;;
1276;SDS011;631;51.024;13.826;2024-01-16T09:38:18;16.27;;;15.33;;
1276;SDS011;631;51.024;13.826;2024-01-16T09:40:44;16.00;;;15.20;;
1276;SDS011;631;51.024;13.826;2024-01-16T09:43:11;16.85;;;15.85;;
1276;SDS011;631;51.024;13.826;2024-01-16T09:45:37;16.50;;;15.40;;
1276;SDS011;631;51.024;13.826;2024-01-16T09:48:06;15.52;;;14.63;;
1276;SDS011;631;51.024;13.826;2024-01-16T09:50:33;15.43;;;14.63;;
1276;SDS011;631;51.024;13.826;2024-01-16T09:52:58;15.40;;;14.57;;
1276;SDS011;631;51.024;13.826;2024-01-16T09:55:24;15.17;;;14.30;;
1276;SDS011;631;51.024;13.826;2024-01-16T09:57:52;16.00;;;15.00;;
1276;SDS011;631;51.024;13.826;2024-01-16T10:00:18;15.07;;;14.05;;
1276;SDS011;631;51.024;13.826;2024-01-16T10:02:45;15.35;;;14.45;;
1276;SDS011;631;51.024;13.826;2024-01-16T10:05:11;16.10;;;15.00;;
1276;SDS011;631;51.024;13.826;2024-01-16T10:07:38;15.20;;;14.30;;
1276;SDS011;631;51.024;13.826;2024-01-16T10:10:05;14.68;;;13.85;;
1276;SDS011;631;51.024;13.826;2024-01-16T10:12:31;15.10;;;14.20;;
1276;SDS011;631;51.024;13.826;2024-01-16T10:14:57;15.43;;;14.52;;
1276;SDS011;631;51.024;13.826;2024-01-16T10:17:34;15.05;;;14.25;;
1276;SDS011;631;51.024;13.826;2024-01-16T10:20:02;15.48;;;14.48;;
1276;SDS011;631;51.024;13.826;2024-01-16T10:22:29;14.70;;;13.90;;
1276;SDS011;631;51.024;13.826;2024-01-16T10:25:16;15.77;;;14.57;;
1276;SDS011;631;51.024;13.826;2024-01-16T10:27:41;14.90;;;13.90;;
1276;SDS011;631;51.024;13.826;2024-01-16T10:30:08;14.88;;;14.07;;
1276;SDS011;631;51.024;13.826;2024-01-16T10:32:44;14.57;;;13.63;;
1276;SDS011;631;51.024;13.826;2024-01-16T10:35:10;14.25;;;13.35;;
1276;SDS011;631;51.024;13.826;2024-01-16T10:37:55;13.68;;;12.68;;
1276;SDS011;631;51.024;13.826;2024-01-16T10:40:22;14.63;;;13.82;;
1276;SDS011;631;51.024;13.826;2024-01-16T10:42:58;13.90;;;13.20;;
1276;SDS011;631;51.024;13.826;2024-01-16T10:45:25;12.65;;;11.75;;
1276;SDS011;631;51.024;13.826;2024-01-16T10:48:00;14.23;;;13.35;;
1276;SDS011;631;51.024;13.826;2024-01-16T10:50:31;13.27;;;12.48;;
1276;SDS011;631;51.024;13.826;2024-01-16T10:52:59;13.20;;;12.50;;
1276;SDS011;631;51.024;13.826;2024-01-16T10:55:28;12.50;;;11.77;;
1276;SDS011;631;51.024;13.826;2024-01-16T10:57:56;11.95;;;11.30;;
1276;SDS011;631;51.024;13.826;2024-01-16T11:00:25;12.50;;;11.68;;
1276;SDS011;631;51.024;13.826;2024-01-16T11:05:35;13.10;;;12.10;;
1276;SDS011;631;51.024;13.826;2024-01-16T11:08:02;12.98;;;12.07;;
1276;SDS011;631;51.024;13.826;2024-01-16T11:10:31;12.68;;;11.98;;
1276;SDS011;631;51.024;13.826;2024-01-16T11:13:00;12.43;;;11.73;;
1276;SDS011;631;51.024;13.826;2024-01-16T11:15:27;13.18;;;11.90;;
1276;SDS011;631;51.024;13.826;2024-01-16T11:17:56;12.88;;;12.07;;
1276;SDS011;631;51.024;13.826;2024-01-16T11:20:23;13.43;;;12.52;;
1276;SDS011;631;51.024;13.826;2024-01-16T11:22:48;12.00;;;11.40;;
1276;SDS011;631;51.024;13.826;2024-01-16T11:25:16;13.57;;;12.63;;
1276;SDS011;631;51.024;13.826;2024-01-16T11:27:43;12.90;;;11.77;;
1276;SDS011;631;51.024;13.826;2024-01-16T11:30:13;12.40;;;11.70;;
1276;SDS011;631;51.024;13.826;2024-01-16T11:32:55;13.30;;;12.38;;
1276;SDS011;631;51.024;13.826;2024-01-16T11:35:31;13.03;;;12.27;;
1276;SDS011;631;51.024;13.826;2024-01-16T11:38:06;13.40;;;12.70;;
1276;SDS011;631;51.024;13.826;2024-01-16T11:40:34;12.95;;;12.18;;
1276;SDS011;631;51.024;13.826;2024-01-16T11:43:45;12.63;;;11.70;;
1276;SDS011;631;51.024;13.826;2024-01-16T11:46:06;12.90;;;12.20;;
1276;SDS011;631;51.024;13.826;2024-01-16T11:48:32;13.93;;;13.02;;
1276;SDS011;631;51.024;13.826;2024-01-16T11:50:58;12.05;;;11.45;;
1276;SDS011;631;51.024;13.826;2024-01-16T12:01:48;14.00;;;13.15;;
1276;SDS011;631;51.024;13.826;2024-01-16T12:04:17;12.82;;;11.90;;
1276;SDS011;631;51.024;13.826;2024-01-16T12:06:46;13.07;;;12.25;;
1276;SDS011;631;51.024;13.826;2024-01-16T12:09:25;12.73;;;11.88;;
1276;SDS011;631;51.024;13.826;2024-01-16T12:12:02;12.65;;;12.05;;
1276;SDS011;631;51.024;13.826;2024-01-16T12:14:28;11.80;;;11.20;;
1276;SDS011;631;51.024;13.826;2024-01-16T12:17:10;12.13;;;11.52;;
1276;SDS011;631;51.024;13.826;2024-01-16T12:19:36;13.73;;;12.82;;
1276;SDS011;631;51.024;13.826;2024-01-16T12:22:05;11.90;;;11.40;;
1276;SDS011;631;51.024;13.826;2024-01-16T12:24:33;12.68;;;12.02;;
1276;SDS011;631;51.024;13.826;2024-01-16T12:26:58;12.63;;;11.93;;
1276;SDS011;631;51.024;13.826;2024-01-16T12:29:24;13.07;;;12.17;;
1276;SDS011;631;51.024;13.826;2024-01-16T12:31:49;13.67;;;12.87;;
1276;SDS011;631;51.024;13.826;2024-01-16T12:34:15;13.37;;;12.57;;
1276;SDS011;631;51.024;13.826;2024-01-16T12:36:41;12.90;;;12.10;;
1276;SDS011;631;51.024;13.826;2024-01-16T12:39:06;13.87;;;13.03;;
1276;SDS011;631;51.024;13.826;2024-01-16T12:41:39;12.40;;;11.77;;
1276;SDS011;631;51.024;13.826;2024-01-16T12:44:07;12.65;;;11.95;;
1276;SDS011;631;51.024;13.826;2024-01-16T12:46:32;13.23;;;12.40;;
1276;SDS011;631;51.024;13.826;2024-01-16T12:49:01;13.67;;;12.83;;
1276;SDS011;631;51.024;13.826;2024-01-16T12:51:28;13.48;;;12.63;;
1276;SDS011;631;51.024;13.826;2024-01-16T12:53:53;13.33;;;12.63;;
1276;SDS011;631;51.024;13.826;2024-01-16T12:56:19;13.50;;;12.40;;
1276;SDS011;631;51.024;13.826;2024-01-16T12:58:45;13.23;;;12.43;;
1276;SDS011;631;51.024;13.826;2024-01-16T13:03:46;13.32;;;12.43;;
1276;SDS011;631;51.024;13.826;2024-01-16T13:06:16;12.97;;;12.20;;
1276;SDS011;631;51.024;13.826;2024-01-16T13:08:43;12.38;;;11.65;;
1276;SDS011;631;51.024;13.826;2024-01-16T13:11:09;13.80;;;12.90;;
1276;SDS011;631;51.024;13.826;2024-01-16T13:13:35;12.77;;;12.13;;
1276;SDS011;631;51.024;13.826;2024-01-16T13:16:01;13.65;;;12.45;;
1276;SDS011;631;51.024;13.826;2024-01-16T13:18:30;13.75;;;12.98;;
1276;SDS011;631;51.024;13.826;2024-01-16T13:20:57;13.50;;;12.70;;
1276;SDS011;631;51.024;13.826;2024-01-16T13:23:24;13.05;;;12.25;;
1276;SDS011;631;51.024;13.826;2024-01-16T13:25:50;12.32;;;11.60;;
1276;SDS011;631;51.024;13.826;2024-01-16T13:28:17;13.18;;;12.48;;
1276;SDS011;631;51.024;13.826;2024-01-16T13:30:45;13.73;;;13.02;;
1276;SDS011;631;51.024;13.826;2024-01-16T13:33:12;13.73;;;12.85;;
1276;SDS011;631;51.024;13.826;2024-01-16T13:35:41;14.93;;;14.00;;
1276;SDS011;631;51.024;13.826;2024-01-16T13:38:08;14.52;;;13.38;;
1276;SDS011;631;51.024;13.826;2024-01-16T13:40:35;13.50;;;12.70;;
1276;SDS011;631;51.024;13.826;2024-01-16T13:43:02;18.65;;;13.95;;
1276;SDS011;631;51.024;13.826;2024-01-16T13:45:28;12.65;;;11.95;;
1276;SDS011;631;51.024;13.826;2024-01-16T13:47:55;13.05;;;12.25;;
1276;SDS011;631;51.024;13.826;2024-01-16T13:50:21;13.65;;;12.68;;
1276;SDS011;631;51.024;13.826;2024-01-16T13:52:47;13.00;;;12.30;;
1276;SDS011;631;51.024;13.826;2024-01-16T13:55:13;12.53;;;11.77;;
1276;SDS011;631;51.024;13.826;2024-01-16T13:57:38;13.00;;;12.27;;
1276;SDS011;631;51.024;13.826;2024-01-16T14:00:06;13.20;;;12.43;;
1276;SDS011;631;51.024;13.826;2024-01-16T14:02:33;13.30;;;12.55;;
1276;SDS011;631;51.024;13.826;2024-01-16T14:05:06;12.80;;;12.10;;
1276;SDS011;631;51.024;13.826;2024-01-16T14:07:35;13.20;;;12.40;;
1276;SDS011;631;51.024;13.826;2024-01-16T14:10:02;12.45;;;11.85;;
1276;SDS011;631;51.024;13.826;2024-01-16T14:12:31;13.82;;;12.93;;
1276;SDS011;631;51.024;13.826;2024-01-16T14:14:56;13.63;;;12.83;;
1276;SDS011;631;51.024;13.826;2024-01-16T14:17:22;12.00;;;11.30;;
1276;SDS011;631;51.024;13.826;2024-01-16T14:19:48;13.00;;;12.20;;
1276;SDS011;631;51.024;13.826;2024-01-16T14:22:13;13.43;;;12.57;;
1276;SDS011;631;51.024;13.826;2024-01-16T14:24:39;13.67;;;12.87;;
1276;SDS011;631;51.024;13.826;2024-01-16T14:27:04;13.47;;;12.70;;
1276;SDS011;631;51.024;13.826;2024-01-16T14:29:31;13.40;;;12.52;;
1276;SDS011;631;51.024;13.826;2024-01-16T14:31:59;13.20;;;12.50;;
1276;SDS011;631;51.024;13.826;2024-01-16T14:34:25;13.43;;;12.52;;
1276;SDS011;631;51.024;13.826;2024-01-16T14:36:52;13.55;;;12.75;;
1276;SDS011;631;51.024;13.826;2024-01-16T14:39:18;12.90;;;12.25;;
1276;SDS011;631;51.024;13.826;2024-01-16T14:41:49;12.65;;;12.05;;
1276;SDS011;631;51.024;13.826;2024-01-16T14:44:16;13.00;;;12.27;;
1276;SDS011;631;51.024;13.826;2024-01-16T14:46:42;12.93;;;12.23;;
1276;SDS011;631;51.024;13.826;2024-01-16T14:49:08;13.25;;;12.55;;
1276;SDS011;631;51.024;13.826;2024-01-16T14:51:34;13.03;;;12.43;;
1276;SDS011;631;51.024;13.826;2024-01-16T14:54:00;13.02;;;12.32;;
1276;SDS011;631;51.024;13.826;2024-01-16T14:56:27;12.95;;;12.35;;
1276;SDS011;631;51.024;13.826;2024-01-16T14:58:53;12.80;;;12.10;;
1276;SDS011;631;51.024;13.826;2024-01-16T15:01:18;11.60;;;11.00;;